sensor_id;sensor_type;location;lat;lon;timestamp;P1;durP1;ratioP1;P2;durP2;ratioP2
76599;SDS011;65489;52.048;6.090;2024-03-06T00:02:04;1.08;;;0.70;;
76599;SDS011;65489;52.048;6.090;2024-03-06T00:04:32;1.05;;;0.90;;
76599;SDS011;65489;52.048;6.090;2024-03-06T00:06:58;1.25;;;0.88;;
76599;SDS011;65489;52.048;6.090;2024-03-06T00:09:25;1.20;;;1.00;;
76599;SDS011;65489;52.048;6.090;2024-03-06T00:11:52;1.48;;;1.00;;
76599;SDS011;65489;52.048;6.090;2024-03-06T00:14:18;1.20;;;0.88;;
76599;SDS011;65489;52.048;6.090;2024-03-06T00:16:44;1.42;;;1.00;;
76599;SDS011;65489;52.048;6.090;2024-03-06T00:19:10;0.73;;;0.60;;
76599;SDS011;65489;52.048;6.090;2024-03-06T00:21:35;1.10;;;0.85;;
76599;SDS011;65489;52.048;6.090;2024-03-06T00:24:03;0.90;;;0.80;;
76599;SDS011;65489;52.048;6.090;2024-03-06T00:26:29;1.02;;;0.80;;
76599;SDS011;65489;52.048;6.090;2024-03-06T00:28:54;1.00;;;0.80;;
76599;SDS011;65489;52.048;6.090;2024-03-06T00:31:20;0.82;;;0.70;;
76599;SDS011;65489;52.048;6.090;2024-03-06T00:33:45;0.90;;;0.73;;
76599;SDS011;65489;52.048;6.090;2024-03-06T00:36:11;1.42;;;0.95;;
76599;SDS011;65489;52.048;6.090;2024-03-06T00:38:36;0.93;;;0.65;;
76599;SDS011;65489;52.048;6.090;2024-03-06T00:41:02;1.20;;;0.80;;
76599;SDS011;65489;52.048;6.090;2024-03-06T00:43:27;0.90;;;0.80;;
76599;SDS011;65489;52.048;6.090;2024-03-06T00:45:53;1.05;;;0.90;;
76599;SDS011;65489;52.048;6.090;2024-03-06T00:48:18;0.98;;;0.80;;
76599;SDS011;65489;52.048;6.090;2024-03-06T00:50:45;1.33;;;0.95;;
76599;SDS011;65489;52.048;6.090;2024-03-06T00:53:10;1.25;;;0.85;;
76599;SDS011;65489;52.048;6.090;2024-03-06T00:55:36;1.00;;;0.90;;
76599;SDS011;65489;52.048;6.090;2024-03-06T00:58:01;0.98;;;0.80;;
76599;SDS011;65489;52.048;6.090;2024-03-06T01:00:27;0.95;;;0.70;;
76599;SDS011;65489;52.048;6.090;2024-03-06T01:02:53;0.80;;;0.73;;
76599;SDS011;65489;52.048;6.090;2024-03-06T01:05:18;1.00;;;0.90;;
76599;SDS011;65489;52.048;6.090;2024-03-06T01:07:43;1.15;;;0.80;;
76599;SDS011;65489;52.048;6.090;2024-03-06T01:10:09;1.75;;;0.60;;
76599;SDS011;65489;52.048;6.090;2024-03-06T01:12:35;0.90;;;0.75;;
76599;SDS011;65489;52.048;6.090;2024-03-06T01:15:01;1.00;;;0.80;;
76599;SDS011;65489;52.048;6.090;2024-03-06T01:17:26;1.70;;;0.90;;
76599;SDS011;65489;52.048;6.090;2024-03-06T01:19:52;1.00;;;0.80;;
76599;SDS011;65489;52.048;6.090;2024-03-06T01:22:17;1.05;;;0.77;;
76599;SDS011;65489;52.048;6.090;2024-03-06T01:24:43;0.73;;;0.73;;
76599;SDS011;65489;52.048;6.090;2024-03-06T01:27:09;1.00;;;0.82;;
76599;SDS011;65489;52.048;6.090;2024-03-06T01:29:34;0.90;;;0.70;;
76599;SDS011;65489;52.048;6.090;2024-03-06T01:32:00;0.80;;;0.80;;
76599;SDS011;65489;52.048;6.090;2024-03-06T01:34:26;1.20;;;0.90;;
76599;SDS011;65489;52.048;6.090;2024-03-06T01:36:51;1.42;;;0.82;;
76599;SDS011;65489;52.048;6.090;2024-03-06T01:39:17;1.02;;;0.80;;
76599;SDS011;65489;52.048;6.090;2024-03-06T01:41:46;1.77;;;0.80;;
76599;SDS011;65489;52.048;6.090;2024-03-06T01:44:13;1.00;;;0.80;;
76599;SDS011;65489;52.048;6.090;2024-03-06T01:46:39;1.90;;;0.75;;
76599;SDS011;65489;52.048;6.090;2024-03-06T01:49:05;1.05;;;0.70;;
76599;SDS011;65489;52.048;6.090;2024-03-06T01:51:31;1.10;;;0.75;;
76599;SDS011;65489;52.048;6.090;2024-03-06T01:53:57;2.45;;;0.85;;
76599;SDS011;65489;52.048;6.090;2024-03-06T01:56:23;1.45;;;0.80;;
76599;SDS011;65489;52.048;6.090;2024-03-06T01:58:49;1.23;;;0.80;;
76599;SDS011;65489;52.048;6.090;2024-03-06T02:01:14;1.10;;;0.80;;
76599;SDS011;65489;52.048;6.090;2024-03-06T02:03:41;1.13;;;0.95;;
76599;SDS011;65489;52.048;6.090;2024-03-06T02:06:07;1.10;;;0.80;;
76599;SDS011;65489;52.048;6.090;2024-03-06T02:08:33;2.45;;;0.98;;
76599;SDS011;65489;52.048;6.090;2024-03-06T02:10:58;1.38;;;0.80;;
76599;SDS011;65489;52.048;6.090;2024-03-06T02:13:27;1.00;;;0.70;;
76599;SDS011;65489;52.048;6.090;2024-03-06T02:15:52;1.60;;;0.90;;
76599;SDS011;65489;52.048;6.090;2024-03-06T02:18:18;1.20;;;1.10;;
76599;SDS011;65489;52.048;6.090;2024-03-06T02:20:43;1.00;;;0.80;;
76599;SDS011;65489;52.048;6.090;2024-03-06T02:23:11;0.98;;;0.80;;
76599;SDS011;65489;52.048;6.090;2024-03-06T02:25:36;1.05;;;0.77;;
76599;SDS011;65489;52.048;6.090;2024-03-06T02:28:01;1.17;;;0.80;;
76599;SDS011;65489;52.048;6.090;2024-03-06T02:30:27;1.27;;;0.90;;
76599;SDS011;65489;52.048;6.090;2024-03-06T02:32:52;1.13;;;0.70;;
76599;SDS011;65489;52.048;6.090;2024-03-06T02:35:18;1.00;;;0.90;;
76599;SDS011;65489;52.048;6.090;2024-03-06T02:37:43;1.02;;;0.82;;
76599;SDS011;65489;52.048;6.090;2024-03-06T02:40:09;1.10;;;0.80;;
76599;SDS011;65489;52.048;6.090;2024-03-06T02:42:35;1.17;;;0.77;;
76599;SDS011;65489;52.048;6.090;2024-03-06T02:45:04;1.20;;;0.80;;
76599;SDS011;65489;52.048;6.090;2024-03-06T02:47:30;1.50;;;1.00;;
76599;SDS011;65489;52.048;6.090;2024-03-06T02:49:55;1.10;;;0.80;;
76599;SDS011;65489;52.048;6.090;2024-03-06T02:52:21;0.95;;;0.77;;
76599;SDS011;65489;52.048;6.090;2024-03-06T02:54:47;1.08;;;0.73;;
76599;SDS011;65489;52.048;6.090;2024-03-06T02:57:13;1.08;;;0.90;;
76599;SDS011;65489;52.048;6.090;2024-03-06T02:59:39;1.70;;;0.80;;
76599;SDS011;65489;52.048;6.090;2024-03-06T03:02:05;1.75;;;1.00;;
76599;SDS011;65489;52.048;6.090;2024-03-06T03:04:30;2.15;;;1.00;;
76599;SDS011;65489;52.048;6.090;2024-03-06T03:06:56;0.82;;;0.70;;
76599;SDS011;65489;52.048;6.090;2024-03-06T03:09:22;0.98;;;0.80;;
76599;SDS011;65489;52.048;6.090;2024-03-06T03:11:48;1.05;;;0.70;;
76599;SDS011;65489;52.048;6.090;2024-03-06T03:14:14;1.10;;;0.90;;
76599;SDS011;65489;52.048;6.090;2024-03-06T03:16:39;1.83;;;1.00;;
76599;SDS011;65489;52.048;6.090;2024-03-06T03:19:04;2.35;;;0.98;;
76599;SDS011;65489;52.048;6.090;2024-03-06T03:21:30;1.88;;;1.00;;
76599;SDS011;65489;52.048;6.090;2024-03-06T03:23:56;1.67;;;0.95;;
76599;SDS011;65489;52.048;6.090;2024-03-06T03:26:21;0.90;;;0.80;;
76599;SDS011;65489;52.048;6.090;2024-03-06T03:28:47;0.98;;;0.80;;
76599;SDS011;65489;52.048;6.090;2024-03-06T03:31:12;0.85;;;0.82;;
76599;SDS011;65489;52.048;6.090;2024-03-06T03:33:41;1.38;;;1.10;;
76599;SDS011;65489;52.048;6.090;2024-03-06T03:36:07;1.02;;;0.70;;
76599;SDS011;65489;52.048;6.090;2024-03-06T03:38:33;0.95;;;0.70;;
76599;SDS011;65489;52.048;6.090;2024-03-06T03:41:03;0.85;;;0.80;;
76599;SDS011;65489;52.048;6.090;2024-03-06T03:43:32;0.90;;;0.70;;
76599;SDS011;65489;52.048;6.090;2024-03-06T03:45:58;0.80;;;0.77;;
76599;SDS011;65489;52.048;6.090;2024-03-06T03:48:25;1.27;;;0.93;;
76599;SDS011;65489;52.048;6.090;2024-03-06T03:50:50;1.45;;;0.82;;
76599;SDS011;65489;52.048;6.090;2024-03-06T03:53:16;0.80;;;0.70;;
76599;SDS011;65489;52.048;6.090;2024-03-06T03:55:41;1.63;;;1.00;;
76599;SDS011;65489;52.048;6.090;2024-03-06T03:58:06;0.90;;;0.70;;
76599;SDS011;65489;52.048;6.090;2024-03-06T04:00:32;0.80;;;0.80;;
76599;SDS011;65489;52.048;6.090;2024-03-06T04:02:58;1.23;;;0.95;;
76599;SDS011;65489;52.048;6.090;2024-03-06T04:05:24;1.23;;;0.90;;
76599;SDS011;65489;52.048;6.090;2024-03-06T04:07:49;1.10;;;0.80;;
76599;SDS011;65489;52.048;6.090;2024-03-06T04:10:15;0.95;;;0.80;;
76599;SDS011;65489;52.048;6.090;2024-03-06T04:12:41;0.70;;;0.70;;
76599;SDS011;65489;52.048;6.090;2024-03-06T04:15:06;0.65;;;0.65;;
76599;SDS011;65489;52.048;6.090;2024-03-06T04:17:33;1.17;;;0.60;;
76599;SDS011;65489;52.048;6.090;2024-03-06T04:19:59;1.42;;;0.77;;
76599;SDS011;65489;52.048;6.090;2024-03-06T04:22:25;0.70;;;0.70;;
76599;SDS011;65489;52.048;6.090;2024-03-06T04:24:51;1.02;;;0.80;;
76599;SDS011;65489;52.048;6.090;2024-03-06T04:27:16;0.90;;;0.65;;
76599;SDS011;65489;52.048;6.090;2024-03-06T04:29:42;1.00;;;0.80;;
76599;SDS011;65489;52.048;6.090;2024-03-06T04:32:08;1.15;;;0.80;;
76599;SDS011;65489;52.048;6.090;2024-03-06T04:34:33;0.90;;;0.70;;
76599;SDS011;65489;52.048;6.090;2024-03-06T04:36:59;0.90;;;0.70;;
76599;SDS011;65489;52.048;6.090;2024-03-06T04:39:26;2.38;;;0.85;;
76599;SDS011;65489;52.048;6.090;2024-03-06T04:41:51;0.90;;;0.70;;
76599;SDS011;65489;52.048;6.090;2024-03-06T04:44:17;0.93;;;0.68;;
76599;SDS011;65489;52.048;6.090;2024-03-06T04:46:42;0.70;;;0.68;;
76599;SDS011;65489;52.048;6.090;2024-03-06T04:49:08;1.17;;;0.60;;
76599;SDS011;65489;52.048;6.090;2024-03-06T04:51:33;0.98;;;0.70;;
76599;SDS011;65489;52.048;6.090;2024-03-06T04:53:59;1.00;;;0.70;;
76599;SDS011;65489;52.048;6.090;2024-03-06T04:56:24;0.80;;;0.63;;
76599;SDS011;65489;52.048;6.090;2024-03-06T04:58:49;0.82;;;0.65;;
76599;SDS011;65489;52.048;6.090;2024-03-06T05:01:16;0.95;;;0.68;;
76599;SDS011;65489;52.048;6.090;2024-03-06T05:03:42;0.95;;;0.80;;
76599;SDS011;65489;52.048;6.090;2024-03-06T05:06:07;1.48;;;0.90;;
76599;SDS011;65489;52.048;6.090;2024-03-06T05:08:33;1.20;;;0.80;;
76599;SDS011;65489;52.048;6.090;2024-03-06T05:10:59;1.02;;;0.80;;
76599;SDS011;65489;52.048;6.090;2024-03-06T05:13:25;1.13;;;0.75;;
76599;SDS011;65489;52.048;6.090;2024-03-06T05:15:51;2.88;;;0.80;;
76599;SDS011;65489;52.048;6.090;2024-03-06T05:18:17;0.80;;;0.60;;
76599;SDS011;65489;52.048;6.090;2024-03-06T05:20:42;1.38;;;0.70;;
76599;SDS011;65489;52.048;6.090;2024-03-06T05:23:08;1.08;;;0.70;;
76599;SDS011;65489;52.048;6.090;2024-03-06T05:25:34;1.08;;;0.70;;
76599;SDS011;65489;52.048;6.090;2024-03-06T05:27:59;3.85;;;0.70;;
76599;SDS011;65489;52.048;6.090;2024-03-06T05:30:25;1.90;;;0.90;;
76599;SDS011;65489;52.048;6.090;2024-03-06T05:32:50;1.55;;;0.80;;
76599;SDS011;65489;52.048;6.090;2024-03-06T05:35:15;0.75;;;0.60;;
76599;SDS011;65489;52.048;6.090;2024-03-06T05:37:42;1.58;;;0.60;;
76599;SDS011;65489;52.048;6.090;2024-03-06T05:40:07;0.85;;;0.65;;
76599;SDS011;65489;52.048;6.090;2024-03-06T05:42:34;1.92;;;0.68;;
76599;SDS011;65489;52.048;6.090;2024-03-06T05:44:59;1.75;;;0.60;;
76599;SDS011;65489;52.048;6.090;2024-03-06T05:47:35;2.70;;;0.85;;
76599;SDS011;65489;52.048;6.090;2024-03-06T05:50:04;1.00;;;0.80;;
76599;SDS011;65489;52.048;6.090;2024-03-06T05:52:31;0.90;;;0.77;;
76599;SDS011;65489;52.048;6.090;2024-03-06T05:54:57;0.77;;;0.60;;
76599;SDS011;65489;52.048;6.090;2024-03-06T05:57:22;1.02;;;0.77;;
76599;SDS011;65489;52.048;6.090;2024-03-06T05:59:47;1.90;;;0.60;;
76599;SDS011;65489;52.048;6.090;2024-03-06T06:02:13;0.70;;;0.70;;
76599;SDS011;65489;52.048;6.090;2024-03-06T06:04:41;1.02;;;0.70;;
76599;SDS011;65489;52.048;6.090;2024-03-06T06:07:07;0.70;;;0.60;;
76599;SDS011;65489;52.048;6.090;2024-03-06T06:09:32;1.17;;;0.70;;
76599;SDS011;65489;52.048;6.090;2024-03-06T06:11:58;1.40;;;0.75;;
76599;SDS011;65489;52.048;6.090;2024-03-06T06:14:24;0.88;;;0.73;;
76599;SDS011;65489;52.048;6.090;2024-03-06T06:16:52;1.17;;;0.70;;
76599;SDS011;65489;52.048;6.090;2024-03-06T06:19:17;0.85;;;0.60;;
76599;SDS011;65489;52.048;6.090;2024-03-06T06:21:43;0.90;;;0.68;;
76599;SDS011;65489;52.048;6.090;2024-03-06T06:24:08;1.05;;;0.90;;
76599;SDS011;65489;52.048;6.090;2024-03-06T06:26:34;0.75;;;0.75;;
76599;SDS011;65489;52.048;6.090;2024-03-06T06:28:59;2.75;;;0.90;;
76599;SDS011;65489;52.048;6.090;2024-03-06T06:31:25;1.20;;;0.68;;
76599;SDS011;65489;52.048;6.090;2024-03-06T06:33:51;1.30;;;0.80;;
76599;SDS011;65489;52.048;6.090;2024-03-06T06:36:17;2.13;;;0.63;;
76599;SDS011;65489;52.048;6.090;2024-03-06T06:38:43;0.85;;;0.73;;
76599;SDS011;65489;52.048;6.090;2024-03-06T06:41:09;1.25;;;0.90;;
76599;SDS011;65489;52.048;6.090;2024-03-06T06:43:35;0.63;;;0.60;;
76599;SDS011;65489;52.048;6.090;2024-03-06T06:46:01;1.25;;;0.70;;
76599;SDS011;65489;52.048;6.090;2024-03-06T06:48:26;1.00;;;0.70;;
76599;SDS011;65489;52.048;6.090;2024-03-06T06:50:52;1.13;;;0.80;;
76599;SDS011;65489;52.048;6.090;2024-03-06T06:53:17;0.75;;;0.60;;
76599;SDS011;65489;52.048;6.090;2024-03-06T06:55:43;1.35;;;0.70;;
76599;SDS011;65489;52.048;6.090;2024-03-06T06:58:08;1.75;;;0.60;;
76599;SDS011;65489;52.048;6.090;2024-03-06T07:00:34;0.85;;;0.70;;
76599;SDS011;65489;52.048;6.090;2024-03-06T07:02:59;0.70;;;0.60;;
76599;SDS011;65489;52.048;6.090;2024-03-06T07:05:25;0.70;;;0.63;;
76599;SDS011;65489;52.048;6.090;2024-03-06T07:07:51;2.78;;;0.80;;
76599;SDS011;65489;52.048;6.090;2024-03-06T07:10:18;0.68;;;0.50;;
76599;SDS011;65489;52.048;6.090;2024-03-06T07:12:44;1.35;;;0.80;;
76599;SDS011;65489;52.048;6.090;2024-03-06T07:15:09;1.00;;;0.73;;
76599;SDS011;65489;52.048;6.090;2024-03-06T07:17:35;0.73;;;0.65;;
76599;SDS011;65489;52.048;6.090;2024-03-06T07:20:00;1.33;;;0.70;;
76599;SDS011;65489;52.048;6.090;2024-03-06T07:22:26;0.80;;;0.70;;
76599;SDS011;65489;52.048;6.090;2024-03-06T07:24:51;0.75;;;0.60;;
76599;SDS011;65489;52.048;6.090;2024-03-06T07:27:17;0.73;;;0.50;;
76599;SDS011;65489;52.048;6.090;2024-03-06T07:29:43;0.98;;;0.60;;
76599;SDS011;65489;52.048;6.090;2024-03-06T07:32:09;0.93;;;0.57;;
76599;SDS011;65489;52.048;6.090;2024-03-06T07:34:34;2.13;;;0.70;;
76599;SDS011;65489;52.048;6.090;2024-03-06T07:37:00;1.10;;;0.68;;
76599;SDS011;65489;52.048;6.090;2024-03-06T07:39:26;1.20;;;0.68;;
76599;SDS011;65489;52.048;6.090;2024-03-06T07:41:52;0.68;;;0.60;;
76599;SDS011;65489;52.048;6.090;2024-03-06T07:44:17;0.70;;;0.60;;
76599;SDS011;65489;52.048;6.090;2024-03-06T07:46:43;0.75;;;0.60;;
76599;SDS011;65489;52.048;6.090;2024-03-06T07:49:08;1.10;;;0.80;;
76599;SDS011;65489;52.048;6.090;2024-03-06T07:51:34;0.98;;;0.70;;
76599;SDS011;65489;52.048;6.090;2024-03-06T07:53:59;0.73;;;0.57;;
76599;SDS011;65489;52.048;6.090;2024-03-06T07:56:25;1.02;;;0.70;;
76599;SDS011;65489;52.048;6.090;2024-03-06T07:58:51;0.80;;;0.60;;
76599;SDS011;65489;52.048;6.090;2024-03-06T08:01:18;0.85;;;0.60;;
76599;SDS011;65489;52.048;6.090;2024-03-06T08:03:44;1.42;;;0.80;;
76599;SDS011;65489;52.048;6.090;2024-03-06T08:06:09;2.70;;;0.70;;
76599;SDS011;65489;52.048;6.090;2024-03-06T08:08:36;1.73;;;0.60;;
76599;SDS011;65489;52.048;6.090;2024-03-06T08:11:01;2.17;;;0.77;;
76599;SDS011;65489;52.048;6.090;2024-03-06T08:13:27;1.00;;;0.77;;
76599;SDS011;65489;52.048;6.090;2024-03-06T08:15:54;1.90;;;0.80;;
76599;SDS011;65489;52.048;6.090;2024-03-06T08:18:19;1.60;;;0.70;;
76599;SDS011;65489;52.048;6.090;2024-03-06T08:20:45;2.20;;;0.80;;
76599;SDS011;65489;52.048;6.090;2024-03-06T08:23:10;1.05;;;0.73;;
76599;SDS011;65489;52.048;6.090;2024-03-06T08:25:36;1.02;;;0.75;;
76599;SDS011;65489;52.048;6.090;2024-03-06T08:28:01;0.90;;;0.65;;
76599;SDS011;65489;52.048;6.090;2024-03-06T08:30:28;1.63;;;0.77;;
76599;SDS011;65489;52.048;6.090;2024-03-06T08:32:55;3.90;;;0.90;;
76599;SDS011;65489;52.048;6.090;2024-03-06T08:35:21;2.45;;;1.05;;
76599;SDS011;65489;52.048;6.090;2024-03-06T08:37:48;2.22;;;1.10;;
76599;SDS011;65489;52.048;6.090;2024-03-06T08:40:15;3.17;;;1.17;;
76599;SDS011;65489;52.048;6.090;2024-03-06T08:42:45;3.33;;;1.10;;
76599;SDS011;65489;52.048;6.090;2024-03-06T08:45:13;2.20;;;1.05;;
76599;SDS011;65489;52.048;6.090;2024-03-06T08:47:42;5.88;;;1.42;;
76599;SDS011;65489;52.048;6.090;2024-03-06T08:50:09;2.80;;;1.30;;
76599;SDS011;65489;52.048;6.090;2024-03-06T08:52:35;3.72;;;1.08;;
76599;SDS011;65489;52.048;6.090;2024-03-06T08:55:00;2.67;;;1.25;;
76599;SDS011;65489;52.048;6.090;2024-03-06T08:57:26;4.10;;;1.00;;
76599;SDS011;65489;52.048;6.090;2024-03-06T08:59:56;5.68;;;1.05;;
76599;SDS011;65489;52.048;6.090;2024-03-06T09:02:22;1.60;;;1.08;;
76599;SDS011;65489;52.048;6.090;2024-03-06T09:04:48;2.83;;;1.20;;
76599;SDS011;65489;52.048;6.090;2024-03-06T09:07:13;4.63;;;1.30;;
76599;SDS011;65489;52.048;6.090;2024-03-06T09:09:39;2.70;;;1.17;;
76599;SDS011;65489;52.048;6.090;2024-03-06T09:12:05;3.13;;;1.17;;
76599;SDS011;65489;52.048;6.090;2024-03-06T09:14:32;2.80;;;1.30;;
76599;SDS011;65489;52.048;6.090;2024-03-06T09:16:58;2.90;;;1.20;;
76599;SDS011;65489;52.048;6.090;2024-03-06T09:19:23;4.43;;;1.15;;
76599;SDS011;65489;52.048;6.090;2024-03-06T09:21:49;3.70;;;1.17;;
76599;SDS011;65489;52.048;6.090;2024-03-06T09:24:14;2.63;;;1.20;;
76599;SDS011;65489;52.048;6.090;2024-03-06T09:26:40;4.45;;;1.10;;
76599;SDS011;65489;52.048;6.090;2024-03-06T09:29:05;5.30;;;1.17;;
76599;SDS011;65489;52.048;6.090;2024-03-06T09:31:31;2.17;;;1.10;;
76599;SDS011;65489;52.048;6.090;2024-03-06T09:33:56;1.52;;;1.02;;
76599;SDS011;65489;52.048;6.090;2024-03-06T09:36:22;1.95;;;0.93;;
76599;SDS011;65489;52.048;6.090;2024-03-06T09:38:48;4.13;;;1.15;;
76599;SDS011;65489;52.048;6.090;2024-03-06T09:41:14;2.75;;;1.10;;
76599;SDS011;65489;52.048;6.090;2024-03-06T09:43:39;3.45;;;1.30;;
76599;SDS011;65489;52.048;6.090;2024-03-06T09:46:06;2.00;;;0.88;;
76599;SDS011;65489;52.048;6.090;2024-03-06T09:48:32;1.95;;;1.08;;
76599;SDS011;65489;52.048;6.090;2024-03-06T09:51:00;2.47;;;1.05;;
76599;SDS011;65489;52.048;6.090;2024-03-06T09:53:27;1.83;;;1.05;;
76599;SDS011;65489;52.048;6.090;2024-03-06T09:55:52;3.47;;;1.13;;
76599;SDS011;65489;52.048;6.090;2024-03-06T09:58:18;3.72;;;1.30;;
76599;SDS011;65489;52.048;6.090;2024-03-06T10:00:44;1.73;;;0.98;;
76599;SDS011;65489;52.048;6.090;2024-03-06T10:03:09;3.03;;;1.30;;
76599;SDS011;65489;52.048;6.090;2024-03-06T10:05:36;2.60;;;1.15;;
76599;SDS011;65489;52.048;6.090;2024-03-06T10:08:02;1.40;;;1.00;;
76599;SDS011;65489;52.048;6.090;2024-03-06T10:10:29;4.25;;;1.23;;
76599;SDS011;65489;52.048;6.090;2024-03-06T10:12:55;4.30;;;1.00;;
76599;SDS011;65489;52.048;6.090;2024-03-06T10:15:22;2.63;;;1.10;;
76599;SDS011;65489;52.048;6.090;2024-03-06T10:17:48;1.48;;;1.10;;
76599;SDS011;65489;52.048;6.090;2024-03-06T10:20:20;2.63;;;1.00;;
76599;SDS011;65489;52.048;6.090;2024-03-06T10:22:51;2.67;;;1.20;;
76599;SDS011;65489;52.048;6.090;2024-03-06T10:25:20;2.03;;;1.20;;
76599;SDS011;65489;52.048;6.090;2024-03-06T10:30:27;1.00;;;0.77;;
76599;SDS011;65489;52.048;6.090;2024-03-06T10:32:53;2.65;;;1.10;;
76599;SDS011;65489;52.048;6.090;2024-03-06T10:35:18;2.78;;;1.13;;
76599;SDS011;65489;52.048;6.090;2024-03-06T10:37:45;2.05;;;1.15;;
76599;SDS011;65489;52.048;6.090;2024-03-06T10:40:12;1.77;;;1.08;;
76599;SDS011;65489;52.048;6.090;2024-03-06T10:42:40;1.25;;;1.05;;
76599;SDS011;65489;52.048;6.090;2024-03-06T10:45:07;2.25;;;1.25;;
76599;SDS011;65489;52.048;6.090;2024-03-06T10:47:33;2.03;;;1.25;;
76599;SDS011;65489;52.048;6.090;2024-03-06T10:49:59;1.88;;;1.17;;
76599;SDS011;65489;52.048;6.090;2024-03-06T10:52:25;2.10;;;1.05;;
76599;SDS011;65489;52.048;6.090;2024-03-06T10:54:52;2.10;;;1.00;;
76599;SDS011;65489;52.048;6.090;2024-03-06T10:57:18;1.75;;;1.13;;
76599;SDS011;65489;52.048;6.090;2024-03-06T10:59:45;2.70;;;1.30;;
76599;SDS011;65489;52.048;6.090;2024-03-06T11:02:10;1.83;;;1.20;;
76599;SDS011;65489;52.048;6.090;2024-03-06T11:04:37;1.48;;;0.98;;
76599;SDS011;65489;52.048;6.090;2024-03-06T11:07:05;1.63;;;1.00;;
76599;SDS011;65489;52.048;6.090;2024-03-06T11:09:35;1.13;;;0.93;;
76599;SDS011;65489;52.048;6.090;2024-03-06T11:12:01;1.33;;;0.98;;
76599;SDS011;65489;52.048;6.090;2024-03-06T11:14:27;1.55;;;1.10;;
76599;SDS011;65489;52.048;6.090;2024-03-06T11:16:58;2.35;;;1.10;;
76599;SDS011;65489;52.048;6.090;2024-03-06T11:19:31;3.05;;;1.13;;
76599;SDS011;65489;52.048;6.090;2024-03-06T11:21:57;1.50;;;1.10;;
76599;SDS011;65489;52.048;6.090;2024-03-06T11:24:23;2.22;;;1.15;;
76599;SDS011;65489;52.048;6.090;2024-03-06T11:27:10;2.03;;;1.30;;
76599;SDS011;65489;52.048;6.090;2024-03-06T11:32:56;2.03;;;1.27;;
76599;SDS011;65489;52.048;6.090;2024-03-06T11:35:28;1.50;;;1.10;;
76599;SDS011;65489;52.048;6.090;2024-03-06T11:37:53;1.48;;;1.10;;
76599;SDS011;65489;52.048;6.090;2024-03-06T11:40:23;1.55;;;1.25;;
76599;SDS011;65489;52.048;6.090;2024-03-06T11:42:52;1.65;;;1.30;;
76599;SDS011;65489;52.048;6.090;2024-03-06T11:45:18;2.55;;;1.30;;
76599;SDS011;65489;52.048;6.090;2024-03-06T11:48:00;2.33;;;1.17;;
76599;SDS011;65489;52.048;6.090;2024-03-06T11:50:26;1.38;;;1.08;;
76599;SDS011;65489;52.048;6.090;2024-03-06T11:52:53;1.77;;;1.17;;
76599;SDS011;65489;52.048;6.090;2024-03-06T11:55:21;1.38;;;1.17;;
76599;SDS011;65489;52.048;6.090;2024-03-06T11:57:47;1.98;;;1.13;;
76599;SDS011;65489;52.048;6.090;2024-03-06T12:00:13;2.58;;;1.38;;
76599;SDS011;65489;52.048;6.090;2024-03-06T12:02:40;1.92;;;1.20;;
76599;SDS011;65489;52.048;6.090;2024-03-06T12:05:07;2.42;;;1.25;;
76599;SDS011;65489;52.048;6.090;2024-03-06T12:07:32;1.95;;;1.17;;
76599;SDS011;65489;52.048;6.090;2024-03-06T12:09:59;2.47;;;1.48;;
76599;SDS011;65489;52.048;6.090;2024-03-06T12:12:24;1.40;;;1.30;;
76599;SDS011;65489;52.048;6.090;2024-03-06T12:14:59;1.63;;;1.33;;
76599;SDS011;65489;52.048;6.090;2024-03-06T12:17:29;2.13;;;1.23;;
76599;SDS011;65489;52.048;6.090;2024-03-06T12:19:54;1.58;;;1.17;;
76599;SDS011;65489;52.048;6.090;2024-03-06T12:22:24;1.98;;;1.20;;
76599;SDS011;65489;52.048;6.090;2024-03-06T12:24:57;1.67;;;1.30;;
76599;SDS011;65489;52.048;6.090;2024-03-06T12:27:24;2.42;;;1.30;;
76599;SDS011;65489;52.048;6.090;2024-03-06T12:29:52;1.60;;;1.27;;
76599;SDS011;65489;52.048;6.090;2024-03-06T12:32:17;1.90;;;1.10;;
76599;SDS011;65489;52.048;6.090;2024-03-06T12:34:43;1.42;;;1.30;;
76599;SDS011;65489;52.048;6.090;2024-03-06T12:37:09;1.98;;;1.40;;
76599;SDS011;65489;52.048;6.090;2024-03-06T12:39:35;1.80;;;1.40;;
76599;SDS011;65489;52.048;6.090;2024-03-06T12:42:01;1.60;;;1.30;;
76599;SDS011;65489;52.048;6.090;2024-03-06T12:44:26;2.50;;;1.67;;
76599;SDS011;65489;52.048;6.090;2024-03-06T12:46:52;2.00;;;1.50;;
76599;SDS011;65489;52.048;6.090;2024-03-06T12:49:17;2.53;;;1.60;;
76599;SDS011;65489;52.048;6.090;2024-03-06T12:51:43;1.40;;;1.30;;
76599;SDS011;65489;52.048;6.090;2024-03-06T12:54:09;2.08;;;1.40;;
76599;SDS011;65489;52.048;6.090;2024-03-06T12:56:34;1.45;;;1.15;;
76599;SDS011;65489;52.048;6.090;2024-03-06T12:59:01;1.67;;;1.30;;
76599;SDS011;65489;52.048;6.090;2024-03-06T13:01:26;1.95;;;1.50;;
76599;SDS011;65489;52.048;6.090;2024-03-06T13:03:52;2.03;;;1.70;;
76599;SDS011;65489;52.048;6.090;2024-03-06T13:06:17;1.90;;;1.50;;
76599;SDS011;65489;52.048;6.090;2024-03-06T13:08:42;2.20;;;1.80;;
76599;SDS011;65489;52.048;6.090;2024-03-06T13:11:08;2.03;;;1.40;;
76599;SDS011;65489;52.048;6.090;2024-03-06T13:13:34;2.60;;;1.65;;
76599;SDS011;65489;52.048;6.090;2024-03-06T13:16:00;1.60;;;1.40;;
76599;SDS011;65489;52.048;6.090;2024-03-06T13:18:26;2.53;;;1.70;;
76599;SDS011;65489;52.048;6.090;2024-03-06T13:20:51;1.90;;;1.45;;
76599;SDS011;65489;52.048;6.090;2024-03-06T13:23:17;1.40;;;1.30;;
76599;SDS011;65489;52.048;6.090;2024-03-06T13:25:42;2.13;;;1.45;;
76599;SDS011;65489;52.048;6.090;2024-03-06T13:28:08;2.03;;;1.50;;
76599;SDS011;65489;52.048;6.090;2024-03-06T13:30:34;8.05;;;1.48;;
76599;SDS011;65489;52.048;6.090;2024-03-06T13:32:59;5.80;;;1.75;;
76599;SDS011;65489;52.048;6.090;2024-03-06T13:35:25;3.75;;;1.40;;
76599;SDS011;65489;52.048;6.090;2024-03-06T13:37:50;2.95;;;1.75;;
76599;SDS011;65489;52.048;6.090;2024-03-06T13:40:16;3.30;;;1.45;;
76599;SDS011;65489;52.048;6.090;2024-03-06T13:42:42;2.28;;;1.85;;
76599;SDS011;65489;52.048;6.090;2024-03-06T13:45:08;3.55;;;1.60;;
76599;SDS011;65489;52.048;6.090;2024-03-06T13:47:40;2.08;;;1.60;;
76599;SDS011;65489;52.048;6.090;2024-03-06T13:50:07;1.98;;;1.48;;
76599;SDS011;65489;52.048;6.090;2024-03-06T13:52:33;4.38;;;1.60;;
76599;SDS011;65489;52.048;6.090;2024-03-06T13:54:59;2.65;;;1.70;;
76599;SDS011;65489;52.048;6.090;2024-03-06T13:57:27;2.17;;;1.50;;
76599;SDS011;65489;52.048;6.090;2024-03-06T13:59:53;1.88;;;1.50;;
76599;SDS011;65489;52.048;6.090;2024-03-06T14:02:18;2.20;;;1.63;;
76599;SDS011;65489;52.048;6.090;2024-03-06T14:04:44;1.60;;;1.50;;
76599;SDS011;65489;52.048;6.090;2024-03-06T14:07:10;2.63;;;1.48;;
76599;SDS011;65489;52.048;6.090;2024-03-06T14:09:35;3.15;;;1.70;;
76599;SDS011;65489;52.048;6.090;2024-03-06T14:12:01;2.35;;;1.52;;
76599;SDS011;65489;52.048;6.090;2024-03-06T14:14:26;2.28;;;1.60;;
76599;SDS011;65489;52.048;6.090;2024-03-06T14:16:52;1.70;;;1.30;;
76599;SDS011;65489;52.048;6.090;2024-03-06T14:19:17;3.42;;;1.50;;
76599;SDS011;65489;52.048;6.090;2024-03-06T14:21:43;1.85;;;1.48;;
76599;SDS011;65489;52.048;6.090;2024-03-06T14:24:08;1.75;;;1.40;;
76599;SDS011;65489;52.048;6.090;2024-03-06T14:26:34;2.15;;;1.45;;
76599;SDS011;65489;52.048;6.090;2024-03-06T14:29:00;1.70;;;1.38;;
76599;SDS011;65489;52.048;6.090;2024-03-06T14:31:27;1.90;;;1.20;;
76599;SDS011;65489;52.048;6.090;2024-03-06T14:33:52;2.35;;;1.25;;
76599;SDS011;65489;52.048;6.090;2024-03-06T14:36:18;1.75;;;1.40;;
76599;SDS011;65489;52.048;6.090;2024-03-06T14:38:44;1.70;;;1.50;;
76599;SDS011;65489;52.048;6.090;2024-03-06T14:41:09;2.03;;;1.50;;
76599;SDS011;65489;52.048;6.090;2024-03-06T14:43:35;3.33;;;1.42;;
76599;SDS011;65489;52.048;6.090;2024-03-06T14:46:03;1.83;;;1.30;;
76599;SDS011;65489;52.048;6.090;2024-03-06T14:48:30;2.42;;;1.42;;